createdAt,value
2018-06-29T00:02:11.476Z,52.30
2018-06-29T00:04:39.012Z,52.90
2018-06-29T00:07:06.918Z,52.50
2018-06-29T00:09:34.531Z,52.60
2018-06-29T00:12:02.037Z,52.80
2018-06-29T00:14:29.717Z,53.40
2018-06-29T00:16:57.431Z,53.20
2018-06-29T00:19:25.075Z,54.00
2018-06-29T00:21:53.421Z,53.00
2018-06-29T00:24:21.010Z,53.50
2018-06-29T00:29:15.923Z,53.10
2018-06-29T00:31:43.470Z,53.20
2018-06-29T00:36:39.177Z,53.70
2018-06-29T00:39:07.360Z,53.30
2018-06-29T00:41:35.576Z,54.00
2018-06-29T00:44:03.197Z,53.70
2018-06-29T00:46:30.715Z,53.60
2018-06-29T00:48:58.244Z,54.10
2018-06-29T00:51:26.534Z,53.70
2018-06-29T00:53:54.043Z,53.70
2018-06-29T00:56:21.553Z,54.30
2018-06-29T00:58:49.056Z,54.00
2018-06-29T01:01:16.576Z,53.70
2018-06-29T01:03:44.048Z,53.50
2018-06-29T01:06:11.542Z,53.90
2018-06-29T01:08:39.107Z,54.70
2018-06-29T01:11:06.692Z,54.00
2018-06-29T01:13:34.172Z,54.00
2018-06-29T01:16:01.680Z,54.30
2018-06-29T01:18:29.224Z,54.60
2018-06-29T01:20:56.680Z,52.30
2018-06-29T01:23:24.126Z,51.90
2018-06-29T01:25:51.835Z,51.40
2018-06-29T01:28:19.460Z,52.20
2018-06-29T01:30:46.991Z,50.50
2018-06-29T01:33:14.517Z,50.70
2018-06-29T01:35:41.953Z,51.40
2018-06-29T01:38:09.571Z,50.90
2018-06-29T01:40:37.009Z,51.20
2018-06-29T01:43:04.541Z,50.40
2018-06-29T01:45:32.243Z,50.00
2018-06-29T01:50:28.188Z,50.10
2018-06-29T01:52:55.627Z,50.10
2018-06-29T01:55:23.227Z,50.50
2018-06-29T01:57:50.681Z,50.00
2018-06-29T02:00:18.112Z,50.50
2018-06-29T02:02:45.590Z,50.50
2018-06-29T02:05:13.140Z,50.50
2018-06-29T02:07:40.612Z,51.10
2018-06-29T02:10:08.201Z,49.70
2018-06-29T02:12:35.706Z,50.90
2018-06-29T02:15:04.180Z,49.90
2018-06-29T02:17:32.152Z,50.00
2018-06-29T02:19:59.658Z,49.80
2018-06-29T02:22:27.240Z,51.80
2018-06-29T02:24:54.820Z,50.60
2018-06-29T02:27:22.299Z,50.00
2018-06-29T02:29:49.897Z,49.90
2018-06-29T02:32:17.320Z,50.10
2018-06-29T02:34:44.802Z,50.00
2018-06-29T02:37:12.350Z,49.90
2018-06-29T02:39:39.872Z,50.50
2018-06-29T02:42:07.445Z,49.90
2018-06-29T02:44:34.890Z,50.50
2018-06-29T02:47:02.343Z,50.80
2018-06-29T02:49:29.837Z,50.30
2018-06-29T02:51:57.307Z,50.60
2018-06-29T02:54:24.769Z,50.90
2018-06-29T02:56:52.266Z,50.10
2018-06-29T02:59:19.723Z,50.10
2018-06-29T03:01:47.215Z,50.30
2018-06-29T03:06:42.059Z,50.90
2018-06-29T03:09:10.063Z,50.80
2018-06-29T03:11:37.746Z,50.50
2018-06-29T03:14:05.305Z,50.80
2018-06-29T03:16:32.757Z,50.20
2018-06-29T03:19:00.275Z,51.10
2018-06-29T03:21:27.711Z,51.10
2018-06-29T03:23:55.200Z,50.00
2018-06-29T03:26:26.234Z,50.50
2018-06-29T03:28:53.842Z,50.30
2018-06-29T03:31:21.296Z,50.50
2018-06-29T03:33:48.777Z,50.40
2018-06-29T03:36:16.300Z,50.10
2018-06-29T03:38:43.760Z,50.20
2018-06-29T03:41:11.805Z,50.20
2018-06-29T03:43:39.364Z,51.10
2018-06-29T03:46:07.540Z,50.00
2018-06-29T03:48:35.033Z,50.40
2018-06-29T03:51:02.593Z,50.10
2018-06-29T03:53:30.137Z,50.30
2018-06-29T03:55:57.629Z,50.10
2018-06-29T03:58:25.097Z,50.20
2018-06-29T04:03:24.381Z,50.60
2018-06-29T04:05:51.824Z,50.20
2018-06-29T04:08:19.336Z,51.10
2018-06-29T04:10:46.849Z,50.50
2018-06-29T04:13:14.332Z,50.20
2018-06-29T04:15:41.838Z,50.70
2018-06-29T04:18:10.064Z,50.60
2018-06-29T04:20:37.542Z,50.40
2018-06-29T04:23:05.109Z,50.90
2018-06-29T04:28:00.076Z,50.30
2018-06-29T04:30:27.558Z,51.30
2018-06-29T04:32:55.040Z,49.90
2018-06-29T04:35:22.520Z,50.50
2018-06-29T04:37:50.056Z,51.50
2018-06-29T04:40:17.492Z,51.00
2018-06-29T04:42:45.000Z,51.00
2018-06-29T04:45:13.042Z,51.40
2018-06-29T04:47:40.505Z,51.30
2018-06-29T04:50:07.929Z,51.20
2018-06-29T04:52:35.432Z,50.70
2018-06-29T04:55:03.005Z,51.80
2018-06-29T04:57:30.475Z,50.40
2018-06-29T04:59:57.976Z,50.70
2018-06-29T05:02:25.459Z,51.40
2018-06-29T05:07:20.317Z,51.00
2018-06-29T05:09:48.251Z,51.10
2018-06-29T05:14:43.092Z,50.70
2018-06-29T05:17:10.567Z,51.10
2018-06-29T05:19:38.120Z,51.40
2018-06-29T05:22:05.574Z,52.20
2018-06-29T05:24:33.048Z,51.80
2018-06-29T05:27:00.541Z,52.10
2018-06-29T05:30:52.485Z,52.30
2018-06-29T05:33:19.912Z,51.00
2018-06-29T05:35:47.568Z,51.90
2018-06-29T05:38:15.407Z,51.90
2018-06-29T05:40:42.855Z,52.20
2018-06-29T05:43:10.346Z,52.10
2018-06-29T05:45:37.795Z,52.10
2018-06-29T05:48:05.268Z,51.70
2018-06-29T05:50:32.848Z,52.00
2018-06-29T05:53:01.005Z,51.90
2018-06-29T05:55:28.485Z,50.40
2018-06-29T05:57:55.938Z,51.50
2018-06-29T06:00:24.078Z,50.10
2018-06-29T06:02:51.548Z,50.00
2018-06-29T06:05:19.743Z,51.40
2018-06-29T06:07:47.264Z,50.30
2018-06-29T06:12:42.313Z,50.60
2018-06-29T06:17:38.557Z,49.30
2018-06-29T06:20:11.089Z,48.80
2018-06-29T06:22:38.589Z,49.50
2018-06-29T06:25:06.129Z,48.70
2018-06-29T06:27:33.713Z,46.30
2018-06-29T06:32:29.447Z,46.80
2018-06-29T06:34:56.971Z,46.90
2018-06-29T06:37:24.438Z,45.90
2018-06-29T06:39:52.049Z,46.00
2018-06-29T06:42:20.280Z,46.70
2018-06-29T06:44:47.867Z,44.60
2018-06-29T06:47:15.550Z,44.00
2018-06-29T06:49:43.072Z,45.40
2018-06-29T06:52:10.530Z,43.90
2018-06-29T06:54:38.037Z,43.60
2018-06-29T06:57:05.745Z,43.00
2018-06-29T06:59:33.366Z,43.40
2018-06-29T07:02:01.059Z,42.30
2018-06-29T07:04:28.592Z,42.60
2018-06-29T07:09:24.323Z,42.50
2018-06-29T07:14:20.469Z,41.70
2018-06-29T07:16:48.030Z,40.70
2018-06-29T07:19:16.165Z,40.10
2018-06-29T07:21:43.736Z,40.30
2018-06-29T07:24:11.240Z,40.60
2018-06-29T07:26:38.859Z,40.40
2018-06-29T07:29:06.493Z,40.00
2018-06-29T07:31:34.279Z,40.40
2018-06-29T07:34:02.603Z,40.00
2018-06-29T07:36:30.207Z,39.50
2018-06-29T07:38:59.041Z,39.50
2018-06-29T07:41:26.812Z,39.60
2018-06-29T07:43:54.540Z,38.90
2018-06-29T07:46:22.400Z,39.10
2018-06-29T07:48:49.962Z,38.90
2018-06-29T07:51:17.484Z,38.50
2018-06-29T07:53:45.145Z,39.00
2018-06-29T07:56:12.656Z,37.50
2018-06-29T07:58:40.344Z,38.20
2018-06-29T08:03:36.149Z,35.90
2018-06-29T08:06:03.724Z,36.70
2018-06-29T08:08:31.273Z,35.60
2018-06-29T08:13:29.909Z,35.50
2018-06-29T08:15:57.421Z,36.30
2018-06-29T08:18:25.292Z,34.60
2018-06-29T08:23:21.652Z,33.80
2018-06-29T08:25:49.760Z,32.90
2018-06-29T08:28:18.346Z,32.60
2018-06-29T08:30:46.079Z,31.80
2018-06-29T08:33:14.899Z,32.30
2018-06-29T08:35:42.953Z,32.70
2018-06-29T08:38:10.577Z,31.70
2018-06-29T08:43:05.472Z,33.00
2018-06-29T08:45:33.031Z,32.40
2018-06-29T08:48:00.486Z,33.20
2018-06-29T08:50:29.147Z,35.00
2018-06-29T08:55:24.050Z,34.30
2018-06-29T08:57:51.619Z,34.90
2018-06-29T09:00:19.080Z,35.20
2018-06-29T09:02:46.672Z,36.20
2018-06-29T09:05:14.145Z,35.70
2018-06-29T09:07:41.675Z,33.70
2018-06-29T09:10:09.177Z,32.50
2018-06-29T09:12:36.675Z,33.50
2018-06-29T09:15:04.204Z,32.00
2018-06-29T09:17:32.727Z,31.40
2018-06-29T09:20:00.198Z,31.40
2018-06-29T09:22:27.703Z,31.50
2018-06-29T09:24:55.174Z,31.30
2018-06-29T09:27:22.654Z,31.60
2018-06-29T09:29:50.199Z,30.30
2018-06-29T09:32:17.637Z,30.90
2018-06-29T09:34:45.130Z,30.50
2018-06-29T09:37:12.787Z,31.60
2018-06-29T09:39:41.100Z,29.90
2018-06-29T09:42:08.913Z,29.80
2018-06-29T09:44:36.449Z,30.80
2018-06-29T09:47:03.930Z,31.20
2018-06-29T09:49:31.462Z,31.60
2018-06-29T09:51:58.931Z,32.20
2018-06-29T09:54:26.518Z,30.00
2018-06-29T09:56:54.044Z,31.30
2018-06-29T09:59:21.577Z,31.10
2018-06-29T10:01:49.052Z,32.20
2018-06-29T10:04:16.596Z,32.60
2018-06-29T10:06:44.072Z,31.90
2018-06-29T10:09:11.963Z,31.80
2018-06-29T10:11:39.624Z,30.80
2018-06-29T10:19:02.984Z,31.50
2018-06-29T10:21:30.473Z,31.30
2018-06-29T10:23:57.907Z,32.00
2018-06-29T10:26:25.419Z,30.90
2018-06-29T10:28:52.859Z,31.00
2018-06-29T10:31:20.408Z,30.50
2018-06-29T10:36:15.434Z,30.70
2018-06-29T10:38:42.946Z,31.10
2018-06-29T10:41:10.438Z,31.50
2018-06-29T10:43:37.979Z,31.30
2018-06-29T10:46:05.491Z,31.00
2018-06-29T10:48:33.073Z,31.20
2018-06-29T10:51:00.588Z,31.90
2018-06-29T10:53:28.016Z,32.30
2018-06-29T10:55:55.526Z,30.80
2018-06-29T10:58:23.047Z,31.70
2018-06-29T11:00:50.524Z,28.90
2018-06-29T11:03:18.029Z,29.40
2018-06-29T11:05:45.508Z,30.60
2018-06-29T11:08:13.086Z,30.50
2018-06-29T11:10:40.532Z,28.40
2018-06-29T11:13:08.048Z,29.30
2018-06-29T11:15:35.533Z,29.50
2018-06-29T11:18:03.088Z,29.90
2018-06-29T11:20:30.548Z,31.90
2018-06-29T11:22:58.059Z,31.50
2018-06-29T11:25:25.551Z,31.70
2018-06-29T11:27:53.199Z,31.10
2018-06-29T11:30:20.695Z,30.30
2018-06-29T11:32:48.648Z,30.70
2018-06-29T11:35:16.159Z,30.00
2018-06-29T11:37:43.667Z,30.50
2018-06-29T11:40:11.785Z,29.70
2018-06-29T11:42:39.384Z,30.20
2018-06-29T11:45:06.872Z,30.00
2018-06-29T11:47:34.307Z,30.00
2018-06-29T11:50:01.778Z,29.40
2018-06-29T11:52:29.253Z,29.70
2018-06-29T11:54:56.809Z,30.10
2018-06-29T11:57:24.301Z,30.30
2018-06-29T11:59:51.752Z,30.40
2018-06-29T12:02:19.217Z,29.90
2018-06-29T12:04:46.813Z,28.90
2018-06-29T12:07:14.369Z,30.10
2018-06-29T12:09:41.861Z,31.10
2018-06-29T12:12:09.318Z,31.00
2018-06-29T12:14:36.873Z,30.20
2018-06-29T12:17:04.708Z,29.90
2018-06-29T12:19:32.204Z,30.50
2018-06-29T12:21:59.672Z,30.00
2018-06-29T12:24:27.152Z,30.00
2018-06-29T12:26:54.699Z,31.50
2018-06-29T12:29:22.192Z,31.70
2018-06-29T12:34:17.052Z,31.50
2018-06-29T12:36:44.594Z,32.90
2018-06-29T12:39:12.173Z,31.20
2018-06-29T12:41:39.717Z,32.40
2018-06-29T12:44:07.401Z,31.80
2018-06-29T12:46:34.890Z,32.10
2018-06-29T12:49:02.428Z,30.40
2018-06-29T12:51:29.981Z,32.00
2018-06-29T12:53:57.427Z,31.10
2018-06-29T12:56:25.077Z,30.00
2018-06-29T12:58:52.579Z,29.30
2018-06-29T13:01:20.140Z,30.70
2018-06-29T13:03:47.633Z,29.80
2018-06-29T13:06:15.247Z,29.30
2018-06-29T13:08:42.767Z,29.80
2018-06-29T13:11:10.256Z,30.30
2018-06-29T13:13:37.764Z,30.00
2018-06-29T13:16:05.298Z,30.70
2018-06-29T13:18:32.777Z,30.70
2018-06-29T13:21:00.409Z,31.20
2018-06-29T13:23:27.910Z,30.50
2018-06-29T13:25:55.448Z,30.20
2018-06-29T13:28:23.012Z,30.90
2018-06-29T13:30:50.896Z,28.20
2018-06-29T13:33:18.406Z,31.40
2018-06-29T13:35:45.941Z,29.40
2018-06-29T13:38:13.456Z,30.10
2018-06-29T13:43:08.508Z,30.60
2018-06-29T13:45:36.059Z,31.20
2018-06-29T13:48:03.572Z,31.20
2018-06-29T13:52:59.429Z,31.80
2018-06-29T13:55:27.037Z,31.90
2018-06-29T13:57:54.777Z,32.10
2018-06-29T14:00:22.428Z,32.90
2018-06-29T14:02:49.918Z,32.50
2018-06-29T14:07:44.917Z,33.40
2018-06-29T14:10:12.505Z,30.40
2018-06-29T14:12:40.051Z,30.80
2018-06-29T14:15:07.604Z,29.90
2018-06-29T14:17:35.125Z,32.50
2018-06-29T14:20:02.711Z,33.70
2018-06-29T14:22:30.192Z,33.20
2018-06-29T14:24:57.778Z,33.00
2018-06-29T14:27:25.312Z,33.80
2018-06-29T14:29:52.889Z,34.10
2018-06-29T14:32:20.378Z,33.80
2018-06-29T14:34:47.934Z,34.80
2018-06-29T14:37:15.414Z,33.70
2018-06-29T14:39:42.915Z,34.40
2018-06-29T14:42:10.462Z,34.60
2018-06-29T14:44:37.958Z,34.60
2018-06-29T14:47:05.538Z,33.20
2018-06-29T14:49:33.063Z,34.80
2018-06-29T14:52:00.750Z,31.20
2018-06-29T14:54:28.233Z,35.40
2018-06-29T14:56:55.789Z,35.30
2018-06-29T14:59:23.329Z,36.20
2018-06-29T15:01:50.880Z,33.10
2018-06-29T15:04:18.471Z,36.70
2018-06-29T15:06:45.953Z,37.30
2018-06-29T15:11:40.904Z,35.60
2018-06-29T15:14:08.619Z,32.90
2018-06-29T15:19:03.842Z,31.20
2018-06-29T15:21:31.980Z,34.20
2018-06-29T15:24:01.329Z,33.50
2018-06-29T15:26:28.932Z,35.10
2018-06-29T15:31:24.106Z,33.80
2018-06-29T15:33:51.613Z,37.20
2018-06-29T15:38:47.192Z,37.60
2018-06-29T15:46:10.559Z,36.10
2018-06-29T15:48:38.114Z,36.70
2018-06-29T15:51:05.624Z,34.50
2018-06-29T15:53:33.175Z,35.20
2018-06-29T15:56:00.755Z,33.20
2018-06-29T15:58:28.287Z,38.30
2018-06-29T16:00:56.313Z,37.20
2018-06-29T16:03:23.870Z,37.70
2018-06-29T16:05:51.763Z,35.10
2018-06-29T16:08:19.366Z,38.60
2018-06-29T16:10:46.973Z,39.70
2018-06-29T16:13:15.615Z,37.50
2018-06-29T16:15:43.342Z,39.60
2018-06-29T16:18:10.858Z,41.30
2018-06-29T16:20:38.415Z,38.20
2018-06-29T16:28:00.931Z,41.80
2018-06-29T16:32:56.785Z,40.90
2018-06-29T16:35:24.598Z,41.90
2018-06-29T16:37:52.341Z,42.10
2018-06-29T16:42:47.506Z,42.00
2018-06-29T16:45:14.965Z,41.70
2018-06-29T16:47:44.657Z,41.00
2018-06-29T16:50:12.981Z,41.10
2018-06-29T16:52:40.465Z,41.60
2018-06-29T16:55:08.187Z,39.40
2018-06-29T16:57:35.710Z,41.70
2018-06-29T17:00:04.081Z,40.30
2018-06-29T17:02:31.622Z,40.40
2018-06-29T17:05:00.024Z,41.10
2018-06-29T17:07:27.874Z,40.60
2018-06-29T17:09:55.389Z,37.20
2018-06-29T17:12:23.229Z,40.90
2018-06-29T17:14:50.727Z,39.80
2018-06-29T17:17:18.219Z,41.20
2018-06-29T17:19:45.739Z,41.10
2018-06-29T17:24:41.067Z,41.40
2018-06-29T17:27:09.966Z,41.10
2018-06-29T17:29:37.588Z,40.30
2018-06-29T17:32:05.185Z,41.00
2018-06-29T17:47:37.353Z,41.60
2018-06-29T17:50:04.963Z,41.00
2018-06-29T17:52:34.005Z,40.90
2018-06-29T17:55:01.619Z,41.40
2018-06-29T17:57:29.259Z,40.70
2018-06-29T17:59:56.903Z,38.40
2018-06-29T18:02:24.460Z,38.90
2018-06-29T18:04:52.157Z,40.30
2018-06-29T18:07:19.957Z,38.00
2018-06-29T18:09:48.397Z,40.10
2018-06-29T18:12:16.028Z,40.50
2018-06-29T18:14:43.512Z,40.10
2018-06-29T18:17:11.692Z,40.80
2018-06-29T18:19:39.724Z,39.70
2018-06-29T18:24:35.035Z,39.30
2018-06-29T18:27:02.597Z,39.50
2018-06-29T18:29:30.210Z,38.60
2018-06-29T18:31:57.814Z,40.00
2018-06-29T18:34:25.332Z,40.70
2018-06-29T18:36:52.916Z,38.10
2018-06-29T18:39:20.403Z,38.10
2018-06-29T18:41:47.929Z,39.30
2018-06-29T18:44:16.781Z,39.20
2018-06-29T18:46:44.307Z,37.60
2018-06-29T18:49:11.849Z,36.50
2018-06-29T18:51:39.396Z,39.00
2018-06-29T18:54:07.525Z,39.20
2018-06-29T18:56:35.051Z,40.50
2018-06-29T18:59:02.605Z,38.40
2018-06-29T19:01:30.324Z,40.20
2018-06-29T19:03:58.033Z,40.90
2018-06-29T19:06:25.621Z,41.30
2018-06-29T19:08:53.138Z,40.90
2018-06-29T19:11:20.806Z,41.50
2018-06-29T19:13:48.450Z,42.10
2018-06-29T19:16:15.994Z,42.10
2018-06-29T19:18:43.578Z,42.20
2018-06-29T19:23:38.740Z,42.80
2018-06-29T19:26:06.285Z,43.10
2018-06-29T19:28:33.920Z,43.80
2018-06-29T19:31:01.551Z,43.20
2018-06-29T19:33:29.317Z,43.70
2018-06-29T19:35:56.945Z,43.90
2018-06-29T19:40:52.096Z,43.80
2018-06-29T19:43:19.635Z,44.20
2018-06-29T19:45:47.179Z,44.80
2018-06-29T19:48:14.717Z,45.10
2018-06-29T19:53:10.080Z,44.40
2018-06-29T19:55:37.657Z,44.70
2018-06-29T19:58:05.370Z,44.80
2018-06-29T20:00:32.880Z,45.00
2018-06-29T20:03:00.341Z,44.90
2018-06-29T20:05:28.747Z,45.50
2018-06-29T20:07:56.264Z,45.00
2018-06-29T20:10:23.804Z,45.20
2018-06-29T20:12:51.517Z,45.30
2018-06-29T20:15:19.077Z,46.20
2018-06-29T20:17:46.691Z,46.30
2018-06-29T20:20:14.297Z,45.70
2018-06-29T20:22:41.791Z,45.70
2018-06-29T20:25:09.316Z,45.60
2018-06-29T20:27:37.032Z,45.90
2018-06-29T20:30:05.462Z,45.50
2018-06-29T20:32:33.021Z,45.60
2018-06-29T20:35:00.607Z,45.60
2018-06-29T20:37:28.488Z,45.60
2018-06-29T20:39:56.029Z,45.30
2018-06-29T20:42:23.591Z,45.20
2018-06-29T20:44:51.113Z,45.50
2018-06-29T20:47:18.908Z,45.50
2018-06-29T20:49:46.822Z,45.50
2018-06-29T20:52:14.365Z,46.00
2018-06-29T20:54:41.891Z,46.00
2018-06-29T20:57:09.373Z,45.70
2018-06-29T20:59:36.899Z,46.00
2018-06-29T21:02:04.500Z,46.10
2018-06-29T21:04:32.025Z,46.10
2018-06-29T21:06:59.578Z,46.70
2018-06-29T21:09:27.136Z,46.60
2018-06-29T21:11:54.654Z,46.80
2018-06-29T21:14:22.177Z,47.30
2018-06-29T21:16:49.777Z,46.70
2018-06-29T21:19:17.379Z,47.30
2018-06-29T21:21:44.952Z,47.30
2018-06-29T21:24:12.432Z,48.20
2018-06-29T21:26:39.994Z,47.30
2018-06-29T21:29:07.533Z,47.30
2018-06-29T21:31:35.004Z,47.30
2018-06-29T21:34:02.577Z,48.00
2018-06-29T21:36:30.133Z,46.50
2018-06-29T21:38:58.731Z,48.40
2018-06-29T21:41:26.188Z,47.10
2018-06-29T21:43:54.004Z,44.90
2018-06-29T21:46:22.344Z,45.70
2018-06-29T21:48:49.887Z,46.10
2018-06-29T21:51:17.434Z,44.80
2018-06-29T21:53:45.594Z,44.80
2018-06-29T21:56:13.088Z,45.50
2018-06-29T21:58:40.695Z,44.40
2018-06-29T22:01:08.249Z,43.50
2018-06-29T22:03:35.816Z,43.30
2018-06-29T22:06:03.387Z,44.10
2018-06-29T22:08:31.926Z,44.10
2018-06-29T22:10:59.476Z,42.70
2018-06-29T22:13:27.037Z,42.90
2018-06-29T22:15:54.537Z,44.20
2018-06-29T22:18:23.007Z,42.00
2018-06-29T22:20:50.709Z,42.60
2018-06-29T22:23:18.456Z,41.80
2018-06-29T22:28:13.716Z,43.50
2018-06-29T22:30:41.510Z,40.80
2018-06-29T22:33:10.080Z,42.30
2018-06-29T22:35:37.759Z,41.10
2018-06-29T22:38:06.010Z,42.00
2018-06-29T22:43:04.727Z,42.00
2018-06-29T22:45:32.329Z,40.90
2018-06-29T22:47:59.855Z,41.80
2018-06-29T22:52:55.178Z,41.50
2018-06-29T22:55:22.756Z,41.50
2018-06-29T22:57:50.352Z,42.10
2018-06-29T23:00:18.429Z,43.10
2018-06-29T23:02:45.948Z,43.20
2018-06-29T23:05:13.412Z,43.60
2018-06-29T23:07:41.419Z,44.10
2018-06-29T23:12:36.365Z,42.80
2018-06-29T23:15:04.404Z,43.30
2018-06-29T23:17:31.958Z,43.10
2018-06-29T23:19:59.635Z,44.30
2018-06-29T23:24:55.079Z,43.40
2018-06-29T23:27:22.651Z,45.40
2018-06-29T23:29:50.120Z,44.90
2018-06-29T23:32:17.632Z,45.70
2018-06-29T23:37:12.604Z,45.10
2018-06-29T23:39:40.103Z,44.40
2018-06-29T23:42:07.796Z,44.80
2018-06-29T23:44:35.297Z,46.50
2018-06-29T23:49:30.997Z,44.30
2018-06-29T23:51:58.643Z,44.90
2018-06-29T23:54:26.240Z,44.20
2018-06-29T23:56:53.856Z,44.50
2018-06-29T23:59:21.298Z,45.90
